sensor_id;sensor_type;location;lat;lon;timestamp;P1;durP1;ratioP1;P2;durP2;ratioP2
69953;SDS011;57276;51.364;12.376;2023-02-23T00:04:50;21.42;;;10.77;;
69953;SDS011;57276;51.364;12.376;2023-02-23T00:10:51;21.87;;;10.60;;
69953;SDS011;57276;51.364;12.376;2023-02-23T00:16:58;20.30;;;10.40;;
69953;SDS011;57276;51.364;12.376;2023-02-23T00:23:00;20.05;;;10.30;;
69953;SDS011;57276;51.364;12.376;2023-02-23T00:29:11;19.60;;;10.03;;
69953;SDS011;57276;51.364;12.376;2023-02-23T00:35:13;23.15;;;10.38;;
69953;SDS011;57276;51.364;12.376;2023-02-23T00:41:18;21.33;;;10.40;;
69953;SDS011;57276;51.364;12.376;2023-02-23T00:47:25;23.42;;;10.52;;
69953;SDS011;57276;51.364;12.376;2023-02-23T00:53:27;20.42;;;10.10;;
69953;SDS011;57276;51.364;12.376;2023-02-23T00:59:29;18.03;;;8.87;;
69953;SDS011;57276;51.364;12.376;2023-02-23T01:05:33;19.70;;;9.80;;
69953;SDS011;57276;51.364;12.376;2023-02-23T01:11:34;19.33;;;10.13;;
69953;SDS011;57276;51.364;12.376;2023-02-23T01:17:37;19.73;;;9.40;;
69953;SDS011;57276;51.364;12.376;2023-02-23T01:23:38;20.42;;;9.38;;
69953;SDS011;57276;51.364;12.376;2023-02-23T01:29:39;19.20;;;9.60;;
69953;SDS011;57276;51.364;12.376;2023-02-23T01:35:41;19.80;;;9.55;;
69953;SDS011;57276;51.364;12.376;2023-02-23T01:41:46;18.40;;;9.57;;
69953;SDS011;57276;51.364;12.376;2023-02-23T01:47:49;20.08;;;9.73;;
69953;SDS011;57276;51.364;12.376;2023-02-23T01:54:03;22.13;;;9.80;;
69953;SDS011;57276;51.364;12.376;2023-02-23T02:00:07;18.63;;;9.90;;
69953;SDS011;57276;51.364;12.376;2023-02-23T02:06:16;20.60;;;9.90;;
69953;SDS011;57276;51.364;12.376;2023-02-23T02:12:19;18.60;;;9.57;;
69953;SDS011;57276;51.364;12.376;2023-02-23T02:18:30;19.52;;;10.05;;
69953;SDS011;57276;51.364;12.376;2023-02-23T02:24:48;20.48;;;9.73;;
69953;SDS011;57276;51.364;12.376;2023-02-23T02:31:13;18.23;;;9.00;;
69953;SDS011;57276;51.364;12.376;2023-02-23T02:37:28;17.92;;;9.63;;
69953;SDS011;57276;51.364;12.376;2023-02-23T02:43:37;22.27;;;10.30;;
69953;SDS011;57276;51.364;12.376;2023-02-23T02:49:44;25.15;;;12.50;;
69953;SDS011;57276;51.364;12.376;2023-02-23T02:55:51;27.83;;;12.90;;
69953;SDS011;57276;51.364;12.376;2023-02-23T03:01:56;27.27;;;14.17;;
69953;SDS011;57276;51.364;12.376;2023-02-23T03:08:20;26.45;;;12.50;;
69953;SDS011;57276;51.364;12.376;2023-02-23T03:14:45;23.77;;;12.17;;
69953;SDS011;57276;51.364;12.376;2023-02-23T03:21:14;20.08;;;10.52;;
69953;SDS011;57276;51.364;12.376;2023-02-23T03:27:42;22.38;;;11.07;;
69953;SDS011;57276;51.364;12.376;2023-02-23T03:40:29;18.88;;;9.93;;
69953;SDS011;57276;51.364;12.376;2023-02-23T03:46:50;18.80;;;9.97;;
69953;SDS011;57276;51.364;12.376;2023-02-23T03:53:20;22.15;;;10.27;;
69953;SDS011;57276;51.364;12.376;2023-02-23T03:59:45;17.27;;;9.00;;
69953;SDS011;57276;51.364;12.376;2023-02-23T04:06:13;16.90;;;9.20;;
69953;SDS011;57276;51.364;12.376;2023-02-23T04:12:38;22.23;;;9.70;;
69953;SDS011;57276;51.364;12.376;2023-02-23T04:18:58;16.00;;;9.13;;
69953;SDS011;57276;51.364;12.376;2023-02-23T04:25:01;18.45;;;8.63;;
69953;SDS011;57276;51.364;12.376;2023-02-23T04:31:02;16.67;;;8.80;;
69953;SDS011;57276;51.364;12.376;2023-02-23T04:37:04;18.30;;;9.07;;
69953;SDS011;57276;51.364;12.376;2023-02-23T04:43:05;17.95;;;8.90;;
69953;SDS011;57276;51.364;12.376;2023-02-23T04:49:07;17.73;;;9.27;;
69953;SDS011;57276;51.364;12.376;2023-02-23T04:55:14;18.25;;;9.25;;
69953;SDS011;57276;51.364;12.376;2023-02-23T05:01:16;19.50;;;9.40;;
69953;SDS011;57276;51.364;12.376;2023-02-23T05:07:18;19.97;;;9.63;;
69953;SDS011;57276;51.364;12.376;2023-02-23T05:13:20;18.42;;;9.38;;
69953;SDS011;57276;51.364;12.376;2023-02-23T05:19:22;20.73;;;9.47;;
69953;SDS011;57276;51.364;12.376;2023-02-23T05:25:24;21.30;;;9.93;;
69953;SDS011;57276;51.364;12.376;2023-02-23T05:31:26;18.27;;;9.32;;
69953;SDS011;57276;51.364;12.376;2023-02-23T05:37:28;18.80;;;9.50;;
69953;SDS011;57276;51.364;12.376;2023-02-23T05:43:29;19.85;;;10.10;;
69953;SDS011;57276;51.364;12.376;2023-02-23T05:49:31;19.20;;;9.47;;
69953;SDS011;57276;51.364;12.376;2023-02-23T05:55:33;21.63;;;9.20;;
69953;SDS011;57276;51.364;12.376;2023-02-23T06:01:35;17.27;;;9.15;;
69953;SDS011;57276;51.364;12.376;2023-02-23T06:07:37;17.13;;;9.03;;
69953;SDS011;57276;51.364;12.376;2023-02-23T06:13:39;17.42;;;9.30;;
69953;SDS011;57276;51.364;12.376;2023-02-23T06:19:41;20.30;;;9.60;;
69953;SDS011;57276;51.364;12.376;2023-02-23T06:25:43;18.05;;;9.10;;
69953;SDS011;57276;51.364;12.376;2023-02-23T06:31:45;19.25;;;9.50;;
69953;SDS011;57276;51.364;12.376;2023-02-23T06:37:47;18.17;;;9.50;;
69953;SDS011;57276;51.364;12.376;2023-02-23T06:43:48;19.73;;;9.18;;
69953;SDS011;57276;51.364;12.376;2023-02-23T06:49:50;17.63;;;9.03;;
69953;SDS011;57276;51.364;12.376;2023-02-23T06:55:52;17.92;;;9.82;;
69953;SDS011;57276;51.364;12.376;2023-02-23T07:01:53;18.10;;;8.90;;
69953;SDS011;57276;51.364;12.376;2023-02-23T07:07:55;18.23;;;9.33;;
69953;SDS011;57276;51.364;12.376;2023-02-23T07:13:57;22.35;;;11.05;;
69953;SDS011;57276;51.364;12.376;2023-02-23T07:19:59;20.07;;;10.00;;
69953;SDS011;57276;51.364;12.376;2023-02-23T07:26:00;17.33;;;9.27;;
69953;SDS011;57276;51.364;12.376;2023-02-23T07:32:02;18.13;;;9.73;;
69953;SDS011;57276;51.364;12.376;2023-02-23T07:38:04;18.67;;;9.80;;
69953;SDS011;57276;51.364;12.376;2023-02-23T07:44:07;18.63;;;10.82;;
69953;SDS011;57276;51.364;12.376;2023-02-23T07:50:09;23.43;;;10.57;;
69953;SDS011;57276;51.364;12.376;2023-02-23T07:56:12;20.23;;;10.38;;
69953;SDS011;57276;51.364;12.376;2023-02-23T08:02:14;20.45;;;10.90;;
69953;SDS011;57276;51.364;12.376;2023-02-23T08:08:16;20.83;;;10.03;;
69953;SDS011;57276;51.364;12.376;2023-02-23T08:14:18;17.92;;;9.60;;
69953;SDS011;57276;51.364;12.376;2023-02-23T08:20:23;19.30;;;9.93;;
69953;SDS011;57276;51.364;12.376;2023-02-23T08:26:25;19.55;;;10.20;;
69953;SDS011;57276;51.364;12.376;2023-02-23T08:32:26;19.27;;;9.77;;
69953;SDS011;57276;51.364;12.376;2023-02-23T08:38:30;22.53;;;9.73;;
69953;SDS011;57276;51.364;12.376;2023-02-23T08:44:31;21.85;;;10.82;;
69953;SDS011;57276;51.364;12.376;2023-02-23T08:50:33;23.73;;;11.50;;
69953;SDS011;57276;51.364;12.376;2023-02-23T08:56:34;22.75;;;11.68;;
69953;SDS011;57276;51.364;12.376;2023-02-23T09:02:37;23.25;;;11.70;;
69953;SDS011;57276;51.364;12.376;2023-02-23T09:08:38;24.77;;;11.67;;
69953;SDS011;57276;51.364;12.376;2023-02-23T09:14:40;26.02;;;12.88;;
69953;SDS011;57276;51.364;12.376;2023-02-23T09:20:42;27.00;;;13.30;;
69953;SDS011;57276;51.364;12.376;2023-02-23T09:26:43;30.10;;;13.60;;
69953;SDS011;57276;51.364;12.376;2023-02-23T09:32:46;28.90;;;14.05;;
69953;SDS011;57276;51.364;12.376;2023-02-23T09:38:49;26.10;;;13.50;;
69953;SDS011;57276;51.364;12.376;2023-02-23T09:44:56;31.83;;;14.65;;
69953;SDS011;57276;51.364;12.376;2023-02-23T09:51:00;28.40;;;14.10;;
69953;SDS011;57276;51.364;12.376;2023-02-23T09:57:04;27.02;;;14.52;;
69953;SDS011;57276;51.364;12.376;2023-02-23T10:09:37;29.67;;;14.93;;
69953;SDS011;57276;51.364;12.376;2023-02-23T10:15:51;29.65;;;14.88;;
69953;SDS011;57276;51.364;12.376;2023-02-23T10:21:57;28.17;;;15.30;;
69953;SDS011;57276;51.364;12.376;2023-02-23T10:28:01;30.10;;;15.00;;
69953;SDS011;57276;51.364;12.376;2023-02-23T10:34:05;32.03;;;15.98;;
69953;SDS011;57276;51.364;12.376;2023-02-23T10:40:17;29.40;;;15.63;;
69953;SDS011;57276;51.364;12.376;2023-02-23T10:46:21;28.65;;;15.68;;
69953;SDS011;57276;51.364;12.376;2023-02-23T10:52:28;30.97;;;15.70;;
69953;SDS011;57276;51.364;12.376;2023-02-23T10:58:43;31.67;;;15.75;;
69953;SDS011;57276;51.364;12.376;2023-02-23T11:04:51;30.13;;;16.10;;
69953;SDS011;57276;51.364;12.376;2023-02-23T11:10:57;34.27;;;15.77;;
69953;SDS011;57276;51.364;12.376;2023-02-23T11:17:00;30.70;;;17.08;;
69953;SDS011;57276;51.364;12.376;2023-02-23T11:23:11;33.27;;;16.67;;
69953;SDS011;57276;51.364;12.376;2023-02-23T11:29:21;32.05;;;17.05;;
69953;SDS011;57276;51.364;12.376;2023-02-23T11:35:26;38.90;;;19.05;;
69953;SDS011;57276;51.364;12.376;2023-02-23T11:41:28;38.47;;;19.47;;
69953;SDS011;57276;51.364;12.376;2023-02-23T11:47:33;37.20;;;19.25;;
69953;SDS011;57276;51.364;12.376;2023-02-23T11:53:39;36.67;;;18.67;;
69953;SDS011;57276;51.364;12.376;2023-02-23T11:59:45;35.58;;;18.58;;
69953;SDS011;57276;51.364;12.376;2023-02-23T12:05:49;33.22;;;17.85;;
69953;SDS011;57276;51.364;12.376;2023-02-23T12:11:54;40.10;;;20.00;;
69953;SDS011;57276;51.364;12.376;2023-02-23T12:17:59;38.35;;;20.00;;
69953;SDS011;57276;51.364;12.376;2023-02-23T12:24:05;40.47;;;19.40;;
69953;SDS011;57276;51.364;12.376;2023-02-23T12:30:22;36.03;;;18.67;;
69953;SDS011;57276;51.364;12.376;2023-02-23T12:36:29;35.47;;;18.80;;
69953;SDS011;57276;51.364;12.376;2023-02-23T12:42:43;38.37;;;19.27;;
69953;SDS011;57276;51.364;12.376;2023-02-23T12:49:03;38.45;;;19.67;;
69953;SDS011;57276;51.364;12.376;2023-02-23T12:55:10;39.43;;;20.07;;
69953;SDS011;57276;51.364;12.376;2023-02-23T13:01:30;38.20;;;20.00;;
69953;SDS011;57276;51.364;12.376;2023-02-23T13:07:38;38.13;;;19.88;;
69953;SDS011;57276;51.364;12.376;2023-02-23T13:13:49;40.20;;;20.57;;
69953;SDS011;57276;51.364;12.376;2023-02-23T13:20:04;36.40;;;20.15;;
69953;SDS011;57276;51.364;12.376;2023-02-23T13:26:21;41.77;;;21.63;;
69953;SDS011;57276;51.364;12.376;2023-02-23T13:32:28;41.70;;;20.55;;
69953;SDS011;57276;51.364;12.376;2023-02-23T13:38:40;48.80;;;23.33;;
69953;SDS011;57276;51.364;12.376;2023-02-23T13:44:48;46.97;;;21.37;;
69953;SDS011;57276;51.364;12.376;2023-02-23T13:56:55;46.40;;;20.60;;
69953;SDS011;57276;51.364;12.376;2023-02-23T14:03:00;46.05;;;21.63;;
69953;SDS011;57276;51.364;12.376;2023-02-23T14:09:07;47.35;;;21.83;;
69953;SDS011;57276;51.364;12.376;2023-02-23T14:21:32;41.90;;;20.42;;
69953;SDS011;57276;51.364;12.376;2023-02-23T14:27:42;45.23;;;21.37;;
69953;SDS011;57276;51.364;12.376;2023-02-23T14:39:47;47.63;;;22.70;;
69953;SDS011;57276;51.364;12.376;2023-02-23T14:45:49;49.00;;;21.97;;
69953;SDS011;57276;51.364;12.376;2023-02-23T14:51:55;47.92;;;22.85;;
69953;SDS011;57276;51.364;12.376;2023-02-23T14:57:58;47.43;;;22.80;;
69953;SDS011;57276;51.364;12.376;2023-02-23T15:04:04;47.55;;;22.92;;
69953;SDS011;57276;51.364;12.376;2023-02-23T15:10:08;51.08;;;23.08;;
69953;SDS011;57276;51.364;12.376;2023-02-23T15:16:14;45.33;;;22.07;;
69953;SDS011;57276;51.364;12.376;2023-02-23T15:22:27;52.67;;;23.70;;
69953;SDS011;57276;51.364;12.376;2023-02-23T15:28:28;49.97;;;23.60;;
69953;SDS011;57276;51.364;12.376;2023-02-23T15:34:31;47.17;;;22.38;;
69953;SDS011;57276;51.364;12.376;2023-02-23T15:40:33;48.05;;;22.13;;
69953;SDS011;57276;51.364;12.376;2023-02-23T15:46:34;47.90;;;22.53;;
69953;SDS011;57276;51.364;12.376;2023-02-23T15:52:39;51.03;;;23.42;;
69953;SDS011;57276;51.364;12.376;2023-02-23T15:58:49;54.67;;;24.27;;
69953;SDS011;57276;51.364;12.376;2023-02-23T16:05:04;55.03;;;23.92;;
69953;SDS011;57276;51.364;12.376;2023-02-23T16:11:08;55.10;;;23.58;;
69953;SDS011;57276;51.364;12.376;2023-02-23T16:23:26;56.95;;;25.08;;
69953;SDS011;57276;51.364;12.376;2023-02-23T16:29:38;60.70;;;24.43;;
69953;SDS011;57276;51.364;12.376;2023-02-23T16:35:45;58.50;;;24.80;;
69953;SDS011;57276;51.364;12.376;2023-02-23T16:41:47;55.38;;;24.35;;
69953;SDS011;57276;51.364;12.376;2023-02-23T16:47:48;62.30;;;26.23;;
69953;SDS011;57276;51.364;12.376;2023-02-23T16:53:51;71.60;;;27.02;;
69953;SDS011;57276;51.364;12.376;2023-02-23T16:59:54;63.77;;;26.80;;
69953;SDS011;57276;51.364;12.376;2023-02-23T17:05:55;65.63;;;27.23;;
69953;SDS011;57276;51.364;12.376;2023-02-23T17:11:57;65.35;;;25.98;;
69953;SDS011;57276;51.364;12.376;2023-02-23T17:17:59;69.23;;;27.80;;
69953;SDS011;57276;51.364;12.376;2023-02-23T17:24:01;68.88;;;28.52;;
69953;SDS011;57276;51.364;12.376;2023-02-23T17:30:04;67.40;;;27.63;;
69953;SDS011;57276;51.364;12.376;2023-02-23T17:36:08;66.93;;;27.73;;
69953;SDS011;57276;51.364;12.376;2023-02-23T17:42:10;65.65;;;27.00;;
69953;SDS011;57276;51.364;12.376;2023-02-23T17:48:12;67.43;;;28.23;;
69953;SDS011;57276;51.364;12.376;2023-02-23T17:54:14;66.85;;;27.88;;
69953;SDS011;57276;51.364;12.376;2023-02-23T18:00:16;73.07;;;29.27;;
69953;SDS011;57276;51.364;12.376;2023-02-23T18:06:19;68.97;;;28.38;;
69953;SDS011;57276;51.364;12.376;2023-02-23T18:12:21;71.72;;;28.58;;
69953;SDS011;57276;51.364;12.376;2023-02-23T18:18:24;66.60;;;27.53;;
69953;SDS011;57276;51.364;12.376;2023-02-23T18:24:26;74.28;;;29.92;;
69953;SDS011;57276;51.364;12.376;2023-02-23T18:30:29;68.73;;;30.27;;
69953;SDS011;57276;51.364;12.376;2023-02-23T18:36:31;74.60;;;30.20;;
69953;SDS011;57276;51.364;12.376;2023-02-23T18:42:35;69.82;;;29.20;;
69953;SDS011;57276;51.364;12.376;2023-02-23T18:48:37;63.40;;;27.37;;
69953;SDS011;57276;51.364;12.376;2023-02-23T18:54:39;52.10;;;24.27;;
69953;SDS011;57276;51.364;12.376;2023-02-23T19:00:42;40.47;;;20.27;;
69953;SDS011;57276;51.364;12.376;2023-02-23T19:06:45;35.35;;;17.48;;
69953;SDS011;57276;51.364;12.376;2023-02-23T19:12:48;36.05;;;18.45;;
69953;SDS011;57276;51.364;12.376;2023-02-23T19:18:50;38.83;;;17.63;;
69953;SDS011;57276;51.364;12.376;2023-02-23T19:24:52;36.35;;;17.85;;
69953;SDS011;57276;51.364;12.376;2023-02-23T19:31:04;38.20;;;19.10;;
69953;SDS011;57276;51.364;12.376;2023-02-23T19:37:07;37.85;;;17.70;;
69953;SDS011;57276;51.364;12.376;2023-02-23T19:43:10;38.20;;;18.10;;
69953;SDS011;57276;51.364;12.376;2023-02-23T19:49:14;35.70;;;17.27;;
69953;SDS011;57276;51.364;12.376;2023-02-23T19:55:16;38.30;;;19.27;;
69953;SDS011;57276;51.364;12.376;2023-02-23T20:01:21;41.27;;;19.17;;
69953;SDS011;57276;51.364;12.376;2023-02-23T20:07:24;40.42;;;18.95;;
69953;SDS011;57276;51.364;12.376;2023-02-23T20:13:26;37.58;;;18.38;;
69953;SDS011;57276;51.364;12.376;2023-02-23T20:19:28;34.80;;;17.33;;
69953;SDS011;57276;51.364;12.376;2023-02-23T20:25:30;36.90;;;17.63;;
69953;SDS011;57276;51.364;12.376;2023-02-23T20:31:33;28.67;;;15.07;;
69953;SDS011;57276;51.364;12.376;2023-02-23T20:37:36;28.10;;;12.85;;
69953;SDS011;57276;51.364;12.376;2023-02-23T20:43:38;26.38;;;12.27;;
69953;SDS011;57276;51.364;12.376;2023-02-23T20:49:41;26.30;;;13.93;;
69953;SDS011;57276;51.364;12.376;2023-02-23T20:55:43;27.88;;;13.48;;
69953;SDS011;57276;51.364;12.376;2023-02-23T21:01:45;29.40;;;14.23;;
69953;SDS011;57276;51.364;12.376;2023-02-23T21:07:48;31.05;;;14.60;;
69953;SDS011;57276;51.364;12.376;2023-02-23T21:13:51;33.72;;;16.50;;
69953;SDS011;57276;51.364;12.376;2023-02-23T21:19:53;36.97;;;16.87;;
69953;SDS011;57276;51.364;12.376;2023-02-23T21:25:54;39.13;;;16.77;;
69953;SDS011;57276;51.364;12.376;2023-02-23T21:32:01;35.37;;;16.53;;
69953;SDS011;57276;51.364;12.376;2023-02-23T21:38:03;32.95;;;15.73;;
69953;SDS011;57276;51.364;12.376;2023-02-23T21:44:06;33.45;;;15.77;;
69953;SDS011;57276;51.364;12.376;2023-02-23T21:50:09;34.43;;;16.07;;
69953;SDS011;57276;51.364;12.376;2023-02-23T21:56:18;35.70;;;16.02;;
69953;SDS011;57276;51.364;12.376;2023-02-23T22:02:21;35.70;;;15.60;;
69953;SDS011;57276;51.364;12.376;2023-02-23T22:08:22;33.95;;;15.18;;
69953;SDS011;57276;51.364;12.376;2023-02-23T22:14:24;36.38;;;15.63;;
69953;SDS011;57276;51.364;12.376;2023-02-23T22:20:25;34.63;;;15.13;;
69953;SDS011;57276;51.364;12.376;2023-02-23T22:26:27;34.33;;;14.63;;
69953;SDS011;57276;51.364;12.376;2023-02-23T22:32:30;41.27;;;14.77;;
69953;SDS011;57276;51.364;12.376;2023-02-23T22:38:33;32.00;;;13.07;;
69953;SDS011;57276;51.364;12.376;2023-02-23T22:44:35;30.60;;;12.55;;
69953;SDS011;57276;51.364;12.376;2023-02-23T22:50:37;29.67;;;12.93;;
69953;SDS011;57276;51.364;12.376;2023-02-23T22:56:39;32.80;;;13.48;;
69953;SDS011;57276;51.364;12.376;2023-02-23T23:02:42;31.17;;;13.40;;
69953;SDS011;57276;51.364;12.376;2023-02-23T23:08:44;32.80;;;13.65;;
69953;SDS011;57276;51.364;12.376;2023-02-23T23:14:45;29.60;;;12.35;;
69953;SDS011;57276;51.364;12.376;2023-02-23T23:20:47;26.07;;;11.27;;
69953;SDS011;57276;51.364;12.376;2023-02-23T23:26:50;31.05;;;12.13;;
69953;SDS011;57276;51.364;12.376;2023-02-23T23:32:56;28.67;;;12.03;;
69953;SDS011;57276;51.364;12.376;2023-02-23T23:38:58;27.48;;;12.05;;
69953;SDS011;57276;51.364;12.376;2023-02-23T23:44:59;26.13;;;11.48;;
69953;SDS011;57276;51.364;12.376;2023-02-23T23:51:02;23.03;;;10.37;;
69953;SDS011;57276;51.364;12.376;2023-02-23T23:57:05;24.13;;;10.35;;
